Time;durP1;ratioP1;P1;durP2;ratioP2;P2;SDS_P1;SDS_P2;PMS_P1;PMS_P2;Temp;Humidity;BMP_temperature;BMP_pressure;BME280_temperature;BME280_humidity;BME280_pressure;Samples;Min_cycle;Max_cycle;Signal;HPM_P1;HPM_P2
2022/11/25 00:01:17;;;;;;;;;;;;;;;;;;4903098;29;19923;-92
2022/11/25 00:03:46;;;;;;;;;;;;;;;;;;4903265;29;19978;-92
2022/11/25 00:06:12;;;;;;;;;;;;;;;;;;4918996;29;19927;-91
2022/11/25 00:08:38;;;;;;;;;;;;;;;;;;4918728;29;19934;-92
2022/11/25 00:11:04;;;;;;;;;;;;;;;;;;4918752;29;19923;-91
2022/11/25 00:13:30;;;;;;;;;;;;;;;;;;4919107;29;19923;-91
2022/11/25 00:15:56;;;;;;;;;;;;;;;;;;4903393;29;19931;-91
2022/11/25 00:18:22;;;;;;;;;;;;;;;;;;4918583;29;19999;-92
2022/11/25 00:20:47;;;;;;;;;;;;;;;;;;4902812;29;19982;-91
2022/11/25 00:23:13;;;;;;;;;;;;;;;;;;4918615;29;19950;-91
2022/11/25 00:25:39;;;;;;;;;;;;;;;;;;4918652;29;19945;-91
2022/11/25 00:28:05;;;;;;;;;;;;;;;;;;4918587;29;20374;-91
2022/11/25 00:30:31;;;;;;;;;;;;;;;;;;4919041;29;19929;-91
2022/11/25 00:32:57;;;;;;;;;;;;;;;;;;4919743;29;19930;-91
2022/11/25 00:35:23;;;;;;;;;;;;;;;;;;4926830;29;20445;-91
2022/11/25 00:37:49;;;;;;;;;;;;;;;;;;4910897;29;19942;-92
2022/11/25 00:40:15;;;;;;;;;;;;;;;;;;4911433;29;19934;-91
2022/11/25 00:45:25;;;;;;;;;;;;;;;;;;4927490;29;19927;-91
2022/11/25 00:47:51;;;;;;;;;;;;;;;;;;4913213;29;19934;-92
2022/11/25 00:50:17;;;;;;;;;;;;;;;;;;4929050;29;19933;-92
2022/11/25 00:52:43;;;;;;;;;;;;;;;;;;4928672;29;19927;-92
2022/11/25 00:55:09;;;;;;;;;;;;;;;;;;4920365;29;20365;-91
2022/11/25 00:57:35;;;;;;;;;;;;;;;;;;4920741;29;19930;-92
2022/11/25 01:00:01;;;;;;;;;;;;;;;;;;4911686;29;19953;-92
2022/11/25 01:02:27;;;;;;;;;;;;;;;;;;4908374;29;19930;-92
2022/11/25 01:04:53;;;;;;;;;;;;;;;;;;4927676;29;20013;-91
2022/11/25 01:07:19;;;;;;;;;;;;;;;;;;4913728;29;19923;-91
2022/11/25 01:09:49;;;;;;;;;;;;;;;;;;4913320;29;20083;-94
2022/11/25 01:12:15;;;;;;;;;;;;;;;;;;4911708;29;20377;-91
2022/11/25 01:14:41;;;;;;;;;;;;;;;;;;4908873;29;19994;-92
2022/11/25 01:17:07;;;;;;;;;;;;;;;;;;4904827;29;19975;-92
2022/11/25 01:19:37;;;;;;;;;;;;;;;;;;4917524;29;19990;-92
2022/11/25 01:22:03;;;;;;;;;;;;;;;;;;4902026;29;19929;-92
2022/11/25 01:24:29;;;;;;;;;;;;;;;;;;4917722;29;19952;-91
2022/11/25 01:26:56;;;;;;;;;;;;;;;;;;4902032;29;19962;-91
2022/11/25 01:29:22;;;;;;;;;;;;;;;;;;4917580;29;19931;-91
2022/11/25 01:31:48;;;;;;;;;;;;;;;;;;4917380;29;20073;-92
2022/11/25 01:34:14;;;;;;;;;;;;;;;;;;4917422;29;20317;-91
2022/11/25 01:36:40;;;;;;;;;;;;;;;;;;4901540;29;20035;-92
2022/11/25 01:39:08;;;;;;;;;;;;;;;;;;4917080;29;19954;-91
2022/11/25 01:41:34;;;;;;;;;;;;;;;;;;4901560;29;19923;-92
2022/11/25 01:44:00;;;;;;;;;;;;;;;;;;4901719;29;19930;-91
2022/11/25 01:46:26;;;;;;;;;;;;;;;;;;4901212;29;19930;-91
2022/11/25 01:48:52;;;;;;;;;;;;;;;;;;4900982;29;19927;-91
2022/11/25 01:51:18;;;;;;;;;;;;;;;;;;4901030;29;19945;-91
2022/11/25 01:53:43;;;;;;;;;;;;;;;;;;4901324;29;19927;-92
2022/11/25 01:56:09;;;;;;;;;;;;;;;;;;4901162;29;20410;-92
2022/11/25 01:58:35;;;;;;;;;;;;;;;;;;4916861;29;19927;-92
2022/11/25 02:01:02;;;;;;;;;;;;;;;;;;4901179;29;20385;-92
2022/11/25 02:03:28;;;;;;;;;;;;;;;;;;4901005;29;19923;-92
2022/11/25 02:05:54;;;;;;;;;;;;;;;;;;4900903;29;20220;-92
2022/11/25 02:08:20;;;;;;;;;;;;;;;;;;4900932;29;20009;-92
2022/11/25 02:10:46;;;;;;;;;;;;;;;;;;4916227;29;19979;-91
2022/11/25 02:13:12;;;;;;;;;;;;;;;;;;4899805;29;19923;-90
2022/11/25 02:15:38;;;;;;;;;;;;;;;;;;4900529;29;19950;-91
2022/11/25 02:18:04;;;;;;;;;;;;;;;;;;4916437;29;19988;-91
2022/11/25 02:20:30;;;;;;;;;;;;;;;;;;4916330;29;20357;-91
2022/11/25 02:22:56;;;;;;;;;;;;;;;;;;4916384;29;19974;-91
2022/11/25 02:25:22;;;;;;;;;;;;;;;;;;4900266;29;19934;-91
2022/11/25 02:27:48;;;;;;;;;;;;;;;;;;4900364;29;19923;-90
2022/11/25 02:30:14;;;;;;;;;;;;;;;;;;4900203;29;19923;-90
2022/11/25 02:32:40;;;;;;;;;;;;;;;;;;4916629;29;20377;-92
2022/11/25 02:35:06;;;;;;;;;;;;;;;;;;4916051;29;20389;-91
2022/11/25 02:37:32;;;;;;;;;;;;;;;;;;4900372;29;19933;-91
2022/11/25 02:39:58;;;;;;;;;;;;;;;;;;4915820;29;19931;-91
2022/11/25 02:42:23;;;;;;;;;;;;;;;;;;4900258;29;20374;-91
2022/11/25 02:44:49;;;;;;;;;;;;;;;;;;4915827;29;19923;-91
2022/11/25 02:47:15;;;;;;;;;;;;;;;;;;4899943;29;19927;-92
2022/11/25 02:49:41;;;;;;;;;;;;;;;;;;4900185;29;20014;-91
2022/11/25 02:52:07;;;;;;;;;;;;;;;;;;4915884;29;20248;-90
2022/11/25 02:54:33;;;;;;;;;;;;;;;;;;4915995;29;19937;-91
2022/11/25 02:56:59;;;;;;;;;;;;;;;;;;4899976;29;19930;-91
2022/11/25 02:59:25;;;;;;;;;;;;;;;;;;4899910;29;19978;-91
2022/11/25 03:01:53;;;;;;;;;;;;;;;;;;4914870;29;20118;-91
2022/11/25 03:04:18;;;;;;;;;;;;;;;;;;4899797;29;20377;-91
2022/11/25 03:06:44;;;;;;;;;;;;;;;;;;4915377;29;19938;-90
2022/11/25 03:09:10;;;;;;;;;;;;;;;;;;4915312;29;20010;-92
2022/11/25 03:14:21;;;;;;;;;;;;;;;;;;4915369;29;19923;-91
2022/11/25 03:16:47;;;;;;;;;;;;;;;;;;4899700;29;19930;-90
2022/11/25 03:19:13;;;;;;;;;;;;;;;;;;4915036;29;19930;-90
2022/11/25 03:21:39;;;;;;;;;;;;;;;;;;4915212;29;19946;-90
2022/11/25 03:24:05;;;;;;;;;;;;;;;;;;4915237;29;19923;-90
2022/11/25 03:26:31;;;;;;;;;;;;;;;;;;4915209;29;20391;-90
2022/11/25 03:28:57;;;;;;;;;;;;;;;;;;4915507;29;19923;-90
2022/11/25 03:31:23;;;;;;;;;;;;;;;;;;4915132;29;19933;-90
2022/11/25 03:33:49;;;;;;;;;;;;;;;;;;4899692;29;19923;-90
2022/11/25 03:36:15;;;;;;;;;;;;;;;;;;4915423;29;19923;-90
2022/11/25 03:38:41;;;;;;;;;;;;;;;;;;4915384;29;19927;-90
2022/11/25 03:41:06;;;;;;;;;;;;;;;;;;4915155;29;19923;-90
2022/11/25 03:43:34;;;;;;;;;;;;;;;;;;4899296;29;19930;-90
2022/11/25 03:46:00;;;;;;;;;;;;;;;;;;4899170;29;20171;-90
2022/11/25 03:48:26;;;;;;;;;;;;;;;;;;4914721;29;19934;-90
2022/11/25 03:50:52;;;;;;;;;;;;;;;;;;4899354;29;20298;-90
2022/11/25 03:53:18;;;;;;;;;;;;;;;;;;4914917;29;20061;-90
2022/11/25 03:55:44;;;;;;;;;;;;;;;;;;4914856;29;19949;-90
2022/11/25 03:58:09;;;;;;;;;;;;;;;;;;4899152;29;20370;-90
2022/11/25 04:00:35;;;;;;;;;;;;;;;;;;4914867;29;19923;-91
2022/11/25 04:03:01;;;;;;;;;;;;;;;;;;4899044;29;20010;-91
2022/11/25 04:05:27;;;;;;;;;;;;;;;;;;4899199;29;19994;-91
2022/11/25 04:07:53;;;;;;;;;;;;;;;;;;4898918;29;20297;-91
2022/11/25 04:10:19;;;;;;;;;;;;;;;;;;4899179;29;19923;-90
2022/11/25 04:12:45;;;;;;;;;;;;;;;;;;4914963;29;20283;-91
2022/11/25 04:15:11;;;;;;;;;;;;;;;;;;4899105;29;19923;-91
2022/11/25 04:17:37;;;;;;;;;;;;;;;;;;4914708;29;19930;-91
2022/11/25 04:20:03;;;;;;;;;;;;;;;;;;4914445;29;19931;-91
2022/11/25 04:22:29;;;;;;;;;;;;;;;;;;4898787;29;19923;-91
2022/11/25 04:24:55;;;;;;;;;;;;;;;;;;4914789;29;19979;-91
2022/11/25 04:27:20;;;;;;;;;;;;;;;;;;4898718;29;19927;-90
2022/11/25 04:29:46;;;;;;;;;;;;;;;;;;4899096;29;20358;-91
2022/11/25 04:32:12;;;;;;;;;;;;;;;;;;4899039;29;19929;-91
2022/11/25 04:34:38;;;;;;;;;;;;;;;;;;4898804;29;19931;-90
2022/11/25 04:37:04;;;;;;;;;;;;;;;;;;4917163;29;19923;-90
2022/11/25 04:39:30;;;;;;;;;;;;;;;;;;4917937;29;19927;-91
2022/11/25 04:42:30;;;;;;;;;;;;;;;;;;4902103;29;20381;-91
2022/11/25 04:44:42;;;;;;;;;;;;;;;;;;4917892;29;20037;-91
2022/11/25 04:47:08;;;;;;;;;;;;;;;;;;4917655;29;20063;-91
2022/11/25 04:49:33;;;;;;;;;;;;;;;;;;4917923;29;19975;-90
2022/11/25 04:51:59;;;;;;;;;;;;;;;;;;4902052;29;19987;-90
2022/11/25 04:54:25;;;;;;;;;;;;;;;;;;4918149;29;19923;-91
2022/11/25 04:56:51;;;;;;;;;;;;;;;;;;4902347;29;19923;-92
2022/11/25 05:02:02;;;;;;;;;;;;;;;;;;4917840;29;20037;-90
2022/11/25 05:04:28;;;;;;;;;;;;;;;;;;4917696;29;19927;-92
2022/11/25 05:06:54;;;;;;;;;;;;;;;;;;4902069;29;19999;-90
2022/11/25 05:09:20;;;;;;;;;;;;;;;;;;4901808;29;19923;-90
2022/11/25 05:11:45;;;;;;;;;;;;;;;;;;4917284;29;19923;-90
2022/11/25 05:14:11;;;;;;;;;;;;;;;;;;4901807;29;19934;-90
2022/11/25 05:16:37;;;;;;;;;;;;;;;;;;4901827;29;19923;-90
2022/11/25 05:19:03;;;;;;;;;;;;;;;;;;4901409;29;19931;-91
2022/11/25 05:21:29;;;;;;;;;;;;;;;;;;4917474;29;19922;-91
2022/11/25 05:23:55;;;;;;;;;;;;;;;;;;4901791;29;19923;-91
2022/11/25 05:26:21;;;;;;;;;;;;;;;;;;4901369;29;19952;-91
2022/11/25 05:28:47;;;;;;;;;;;;;;;;;;4901399;29;19923;-90
2022/11/25 05:31:13;;;;;;;;;;;;;;;;;;4917411;29;19931;-91
2022/11/25 05:33:39;;;;;;;;;;;;;;;;;;4901740;29;20266;-91
2022/11/25 05:36:04;;;;;;;;;;;;;;;;;;4901698;29;19930;-91
2022/11/25 05:38:30;;;;;;;;;;;;;;;;;;4901484;29;20366;-91
2022/11/25 05:40:57;;;;;;;;;;;;;;;;;;4901063;29;19923;-91
2022/11/25 05:43:23;;;;;;;;;;;;;;;;;;4916808;29;19923;-91
2022/11/25 05:45:49;;;;;;;;;;;;;;;;;;4901082;29;19971;-91
2022/11/25 05:48:15;;;;;;;;;;;;;;;;;;4899759;29;19927;-92
2022/11/25 05:50:41;;;;;;;;;;;;;;;;;;4900946;29;19923;-92
2022/11/25 05:53:07;;;;;;;;;;;;;;;;;;4916678;29;19930;-92
2022/11/25 05:55:33;;;;;;;;;;;;;;;;;;4900935;29;19935;-92
2022/11/25 05:58:01;;;;;;;;;;;;;;;;;;4901159;29;19923;-92
2022/11/25 06:00:27;;;;;;;;;;;;;;;;;;4900985;29;19934;-93
2022/11/25 06:02:53;;;;;;;;;;;;;;;;;;4900872;29;19926;-93
2022/11/25 06:05:19;;;;;;;;;;;;;;;;;;4900886;29;20063;-92
2022/11/25 06:07:45;;;;;;;;;;;;;;;;;;4900869;29;19930;-93
2022/11/25 06:10:11;;;;;;;;;;;;;;;;;;4900572;29;19922;-94
2022/11/25 06:12:37;;;;;;;;;;;;;;;;;;4900634;29;20291;-92
2022/11/25 06:15:03;;;;;;;;;;;;;;;;;;4900711;29;19984;-92
2022/11/25 06:17:29;;;;;;;;;;;;;;;;;;4900538;29;20406;-91
2022/11/25 06:19:58;;;;;;;;;;;;;;;;;;4916304;29;19927;-91
2022/11/25 06:22:24;;;;;;;;;;;;;;;;;;4900579;29;20404;-91
2022/11/25 06:24:49;;;;;;;;;;;;;;;;;;4900365;29;20278;-90
2022/11/25 06:27:15;;;;;;;;;;;;;;;;;;4916502;29;20396;-91
2022/11/25 06:29:41;;;;;;;;;;;;;;;;;;4900485;29;19923;-92
2022/11/25 06:32:07;;;;;;;;;;;;;;;;;;4900437;29;19923;-91
2022/11/25 06:34:35;;;;;;;;;;;;;;;;;;4900364;29;19977;-91
2022/11/25 06:37:01;;;;;;;;;;;;;;;;;;4900461;29;19923;-91
2022/11/25 06:39:27;;;;;;;;;;;;;;;;;;4915972;29;20030;-91
2022/11/25 06:41:52;;;;;;;;;;;;;;;;;;4900362;29;19966;-91
2022/11/25 06:44:18;;;;;;;;;;;;;;;;;;4900634;29;20018;-91
2022/11/25 06:46:45;;;;;;;;;;;;;;;;;;4900489;29;20358;-92
2022/11/25 06:49:11;;;;;;;;;;;;;;;;;;4899931;29;19927;-91
2022/11/25 06:51:36;;;;;;;;;;;;;;;;;;4900198;29;19998;-91
2022/11/25 06:54:02;;;;;;;;;;;;;;;;;;4900408;29;19924;-92
2022/11/25 06:56:28;;;;;;;;;;;;;;;;;;4899921;29;20405;-91
2022/11/25 06:58:54;;;;;;;;;;;;;;;;;;4899808;29;20267;-91
2022/11/25 07:01:20;;;;;;;;;;;;;;;;;;4899997;29;19923;-92
2022/11/25 07:03:48;;;;;;;;;;;;;;;;;;4900147;29;19924;-91
2022/11/25 07:06:13;;;;;;;;;;;;;;;;;;4899998;29;19927;-91
2022/11/25 07:08:39;;;;;;;;;;;;;;;;;;4899757;29;19923;-91
2022/11/25 07:11:05;;;;;;;;;;;;;;;;;;4899729;29;20294;-91
2022/11/25 07:13:31;;;;;;;;;;;;;;;;;;4915670;29;20334;-91
2022/11/25 07:15:57;;;;;;;;;;;;;;;;;;4899808;29;20022;-92
2022/11/25 07:18:26;;;;;;;;;;;;;;;;;;4900084;29;19992;-92
2022/11/25 07:20:52;;;;;;;;;;;;;;;;;;4900492;29;20326;-92
2022/11/25 07:23:21;;;;;;;;;;;;;;;;;;4900192;29;19986;-93
2022/11/25 07:25:47;;;;;;;;;;;;;;;;;;4899481;29;20283;-91
2022/11/25 07:28:13;;;;;;;;;;;;;;;;;;4915424;29;19934;-91
2022/11/25 07:30:39;;;;;;;;;;;;;;;;;;4900722;29;19972;-91
2022/11/25 07:33:05;;;;;;;;;;;;;;;;;;4902752;29;19930;-91
2022/11/25 07:35:31;;;;;;;;;;;;;;;;;;4905091;29;19946;-92
2022/11/25 07:37:57;;;;;;;;;;;;;;;;;;4909885;29;19927;-92
2022/11/25 07:40:23;;;;;;;;;;;;;;;;;;4922358;29;19935;-92
2022/11/25 07:42:50;;;;;;;;;;;;;;;;;;4920561;29;19942;-92
2022/11/25 07:45:16;;;;;;;;;;;;;;;;;;4899959;29;19993;-92
2022/11/25 07:47:42;;;;;;;;;;;;;;;;;;4899287;29;20148;-92
2022/11/25 07:50:08;;;;;;;;;;;;;;;;;;4899391;29;19971;-92
2022/11/25 07:52:34;;;;;;;;;;;;;;;;;;4899343;29;19927;-90
2022/11/25 07:54:59;;;;;;;;;;;;;;;;;;4899495;29;19923;-90
2022/11/25 07:57:25;;;;;;;;;;;;;;;;;;4915296;29;19923;-90
2022/11/25 07:59:51;;;;;;;;;;;;;;;;;;4899423;29;19931;-90
2022/11/25 08:02:17;;;;;;;;;;;;;;;;;;4899332;29;20401;-91
2022/11/25 08:04:43;;;;;;;;;;;;;;;;;;4899590;29;20022;-91
2022/11/25 08:07:09;;;;;;;;;;;;;;;;;;4899725;29;19974;-91
2022/11/25 08:09:35;;;;;;;;;;;;;;;;;;4899585;29;19923;-88
2022/11/25 08:12:01;;;;;;;;;;;;;;;;;;4902443;29;19923;-90
2022/11/25 08:14:27;;;;;;;;;;;;;;;;;;4903169;29;19923;-91
2022/11/25 08:16:53;;;;;;;;;;;;;;;;;;4903426;29;20275;-91
2022/11/25 08:19:20;;;;;;;;;;;;;;;;;;4903226;29;20354;-91
2022/11/25 08:21:49;;;;;;;;;;;;;;;;;;4903119;29;19949;-91
2022/11/25 08:24:15;;;;;;;;;;;;;;;;;;4919077;29;20022;-90
2022/11/25 08:26:41;;;;;;;;;;;;;;;;;;4902636;29;19981;-91
2022/11/25 08:29:08;;;;;;;;;;;;;;;;;;4903127;29;19931;-92
2022/11/25 08:31:34;;;;;;;;;;;;;;;;;;4902857;29;20121;-90
2022/11/25 08:34:03;;;;;;;;;;;;;;;;;;4903212;29;19945;-91
2022/11/25 08:36:29;;;;;;;;;;;;;;;;;;4902970;29;20370;-89
2022/11/25 08:38:56;;;;;;;;;;;;;;;;;;4918474;29;20034;-90
2022/11/25 08:41:22;;;;;;;;;;;;;;;;;;4902881;29;19929;-90
2022/11/25 08:43:48;;;;;;;;;;;;;;;;;;4885930;29;19924;-90
2022/11/25 08:46:14;;;;;;;;;;;;;;;;;;4884119;29;20367;-89
2022/11/25 08:48:40;;;;;;;;;;;;;;;;;;4897288;29;19927;-90
2022/11/25 08:51:06;;;;;;;;;;;;;;;;;;4902152;29;20350;-90
2022/11/25 08:53:32;;;;;;;;;;;;;;;;;;4902116;29;19927;-89
2022/11/25 08:55:58;;;;;;;;;;;;;;;;;;4902104;29;20294;-91
2022/11/25 08:58:24;;;;;;;;;;;;;;;;;;4901978;29;20362;-90
2022/11/25 09:00:50;;;;;;;;;;;;;;;;;;4902091;29;19997;-89
2022/11/25 09:03:16;;;;;;;;;;;;;;;;;;4888867;29;19924;-90
2022/11/25 09:05:42;;;;;;;;;;;;;;;;;;4883403;29;19958;-90
2022/11/25 09:08:08;;;;;;;;;;;;;;;;;;4898808;29;19924;-90
2022/11/25 09:10:33;;;;;;;;;;;;;;;;;;4883412;29;19923;-91
2022/11/25 09:12:59;;;;;;;;;;;;;;;;;;4883155;29;19924;-91
2022/11/25 09:15:25;;;;;;;;;;;;;;;;;;4883536;29;19930;-89
2022/11/25 09:17:51;;;;;;;;;;;;;;;;;;4890641;29;20335;-90
2022/11/25 09:20:17;;;;;;;;;;;;;;;;;;4916644;29;19928;-89
2022/11/25 09:22:43;;;;;;;;;;;;;;;;;;4916954;29;19927;-89
2022/11/25 09:25:09;;;;;;;;;;;;;;;;;;4917210;29;19923;-89
2022/11/25 09:27:35;;;;;;;;;;;;;;;;;;4917477;29;19934;-89
2022/11/25 09:30:01;;;;;;;;;;;;;;;;;;4917171;29;19930;-89
2022/11/25 09:32:27;;;;;;;;;;;;;;;;;;4901229;29;20021;-89
2022/11/25 09:34:53;;;;;;;;;;;;;;;;;;4917524;29;20252;-90
2022/11/25 09:37:19;;;;;;;;;;;;;;;;;;4917004;29;20007;-90
2022/11/25 09:39:45;;;;;;;;;;;;;;;;;;4916902;29;19927;-90
2022/11/25 09:47:40;;;;;;;;;;;;;;;;;;4916629;29;20386;-91
2022/11/25 09:50:06;;;;;;;;;;;;;;;;;;4917168;29;19923;-90
2022/11/25 09:52:33;;;;;;;;;;;;;;;;;;4917122;29;20323;-90
2022/11/25 09:55:00;;;;;;;;;;;;;;;;;;4916619;29;19970;-91
2022/11/25 09:57:27;;;;;;;;;;;;;;;;;;4901433;29;19923;-91
2022/11/25 09:59:53;;;;;;;;;;;;;;;;;;4901111;29;20302;-91
2022/11/25 10:02:19;;;;;;;;;;;;;;;;;;4916384;29;19930;-90
2022/11/25 10:04:45;;;;;;;;;;;;;;;;;;4916711;29;20389;-91
2022/11/25 10:07:11;;;;;;;;;;;;;;;;;;4917046;29;20014;-90
2022/11/25 10:09:37;;;;;;;;;;;;;;;;;;4916582;29;19977;-91
2022/11/25 10:12:03;;;;;;;;;;;;;;;;;;4916624;29;19931;-93
2022/11/25 10:14:29;;;;;;;;;;;;;;;;;;4916838;29;20027;-93
2022/11/25 10:16:55;;;;;;;;;;;;;;;;;;4917358;29;19982;-94
2022/11/25 10:19:23;;;;;;;;;;;;;;;;;;4916788;29;20018;-93
2022/11/25 10:21:49;;;;;;;;;;;;;;;;;;4917394;29;20151;-94
2022/11/25 10:24:16;;;;;;;;;;;;;;;;;;4917538;29;19923;-93
2022/11/25 10:26:42;;;;;;;;;;;;;;;;;;4901168;29;19927;-92
2022/11/25 10:29:08;;;;;;;;;;;;;;;;;;4916811;29;19946;-91
2022/11/25 10:31:34;;;;;;;;;;;;;;;;;;4916065;29;19946;-90
2022/11/25 10:34:00;;;;;;;;;;;;;;;;;;4915775;29;19923;-91
2022/11/25 10:36:26;;;;;;;;;;;;;;;;;;4916596;29;19923;-91
2022/11/25 10:38:52;;;;;;;;;;;;;;;;;;4915950;29;20351;-90
2022/11/25 10:41:26;;;;;;;;;;;;;;;;;;4917221;29;19946;-95
2022/11/25 10:43:52;;;;;;;;;;;;;;;;;;4917354;29;20375;-94
2022/11/25 10:46:18;;;;;;;;;;;;;;;;;;4916623;29;19923;-93
2022/11/25 10:48:44;;;;;;;;;;;;;;;;;;4915602;29;19931;-91
2022/11/25 10:51:10;;;;;;;;;;;;;;;;;;4915790;29;19923;-92
2022/11/25 10:53:35;;;;;;;;;;;;;;;;;;4916035;29;19931;-94
2022/11/25 10:56:02;;;;;;;;;;;;;;;;;;4916228;29;19924;-91
2022/11/25 10:58:30;;;;;;;;;;;;;;;;;;4903825;29;19924;-95
2022/11/25 11:00:56;;;;;;;;;;;;;;;;;;4918067;29;19930;-95
2022/11/25 11:03:22;;;;;;;;;;;;;;;;;;4916823;29;19923;-93
2022/11/25 11:05:48;;;;;;;;;;;;;;;;;;4916086;29;19923;-93
2022/11/25 11:08:15;;;;;;;;;;;;;;;;;;4917004;29;20302;-93
2022/11/25 11:10:44;;;;;;;;;;;;;;;;;;4902857;29;19930;-94
2022/11/25 11:13:09;;;;;;;;;;;;;;;;;;4916108;29;20020;-93
2022/11/25 11:15:35;;;;;;;;;;;;;;;;;;4915739;29;20076;-92
2022/11/25 11:18:01;;;;;;;;;;;;;;;;;;4915602;29;19946;-92
2022/11/25 11:20:28;;;;;;;;;;;;;;;;;;4915481;29;19933;-93
2022/11/25 11:22:54;;;;;;;;;;;;;;;;;;4915645;29;20299;-89
2022/11/25 11:25:20;;;;;;;;;;;;;;;;;;4915545;29;19987;-93
2022/11/25 11:27:45;;;;;;;;;;;;;;;;;;4915855;29;20019;-92
2022/11/25 11:30:11;;;;;;;;;;;;;;;;;;4915396;29;20036;-92
2022/11/25 11:32:37;;;;;;;;;;;;;;;;;;4915730;29;19930;-93
2022/11/25 11:35:04;;;;;;;;;;;;;;;;;;4915790;29;19927;-93
2022/11/25 11:37:30;;;;;;;;;;;;;;;;;;4915859;29;20289;-92
2022/11/25 11:39:58;;;;;;;;;;;;;;;;;;4915639;29;19927;-94
2022/11/25 11:42:24;;;;;;;;;;;;;;;;;;4900853;29;19927;-93
2022/11/25 11:44:50;;;;;;;;;;;;;;;;;;4915157;29;19978;-92
2022/11/25 11:47:16;;;;;;;;;;;;;;;;;;4899078;29;19927;-94
2022/11/25 11:49:42;;;;;;;;;;;;;;;;;;4899738;29;19930;-92
2022/11/25 11:52:11;;;;;;;;;;;;;;;;;;4915367;29;19923;-93
2022/11/25 11:54:37;;;;;;;;;;;;;;;;;;4900182;29;19930;-92
2022/11/25 11:57:03;;;;;;;;;;;;;;;;;;4900050;29;19923;-92
2022/11/25 11:59:29;;;;;;;;;;;;;;;;;;4899962;29;19978;-93
2022/11/25 12:01:54;;;;;;;;;;;;;;;;;;4915718;29;19923;-94
2022/11/25 12:04:20;;;;;;;;;;;;;;;;;;4899787;29;19931;-93
2022/11/25 12:06:46;;;;;;;;;;;;;;;;;;4899767;29;19923;-96
2022/11/25 12:09:14;;;;;;;;;;;;;;;;;;4916232;29;19950;-93
2022/11/25 12:11:40;;;;;;;;;;;;;;;;;;4905359;29;19924;-93
2022/11/25 12:14:06;;;;;;;;;;;;;;;;;;4899761;29;19946;-93
2022/11/25 12:16:35;;;;;;;;;;;;;;;;;;4900217;29;19923;-92
2022/11/25 12:19:01;;;;;;;;;;;;;;;;;;4899668;29;19934;-91
2022/11/25 12:21:27;;;;;;;;;;;;;;;;;;4899565;29;19927;-94
2022/11/25 12:23:53;;;;;;;;;;;;;;;;;;4899688;29;19923;-91
2022/11/25 12:26:19;;;;;;;;;;;;;;;;;;4906381;29;19923;-92
2022/11/25 12:28:45;;;;;;;;;;;;;;;;;;4907723;29;19978;-92
2022/11/25 12:31:14;;;;;;;;;;;;;;;;;;4921155;29;19911;-92
2022/11/25 12:33:40;;;;;;;;;;;;;;;;;;4919672;29;19942;-93
2022/11/25 12:36:06;;;;;;;;;;;;;;;;;;4929702;29;19923;-94
2022/11/25 12:38:32;;;;;;;;;;;;;;;;;;4909937;29;19923;-91
2022/11/25 12:40:58;;;;;;;;;;;;;;;;;;4899510;29;19923;-92
2022/11/25 12:43:24;;;;;;;;;;;;;;;;;;4899858;29;20380;-93
2022/11/25 12:45:49;;;;;;;;;;;;;;;;;;4899342;29;19927;-92
2022/11/25 12:48:15;;;;;;;;;;;;;;;;;;4914889;29;19933;-94
2022/11/25 12:50:41;;;;;;;;;;;;;;;;;;4899597;29;19938;-92
2022/11/25 12:53:10;;;;;;;;;;;;;;;;;;4899135;29;19927;-93
2022/11/25 12:55:36;;;;;;;;;;;;;;;;;;4899347;29;19934;-92
2022/11/25 12:58:02;;;;;;;;;;;;;;;;;;4901743;29;19923;-92
2022/11/25 13:00:28;;;;;;;;;;;;;;;;;;4902551;29;20297;-93
2022/11/25 13:03:16;;;;;;;;;;;;;;;;;;4903817;29;20386;-96
2022/11/25 13:05:42;;;;;;;;;;;;;;;;;;4902670;29;19923;-93
2022/11/25 13:08:08;;;;;;;;;;;;;;;;;;4889995;29;20290;-93
2022/11/25 13:10:34;;;;;;;;;;;;;;;;;;4883714;29;19924;-94
2022/11/25 13:13:02;;;;;;;;;;;;;;;;;;4883412;29;20025;-93
2022/11/25 13:15:28;;;;;;;;;;;;;;;;;;4883638;29;20157;-95
2022/11/25 13:17:54;;;;;;;;;;;;;;;;;;4899126;29;20018;-91
2022/11/25 13:20:20;;;;;;;;;;;;;;;;;;4898407;29;19979;-92
2022/11/25 13:22:46;;;;;;;;;;;;;;;;;;4883409;29;19943;-91
2022/11/25 13:25:12;;;;;;;;;;;;;;;;;;4882626;29;20309;-92
2022/11/25 13:27:41;;;;;;;;;;;;;;;;;;4898678;29;19934;-92
2022/11/25 13:30:07;;;;;;;;;;;;;;;;;;4894669;29;19943;-92
2022/11/25 13:32:33;;;;;;;;;;;;;;;;;;4917744;29;19974;-92
2022/11/25 13:34:59;;;;;;;;;;;;;;;;;;4916980;29;19923;-92
2022/11/25 13:37:25;;;;;;;;;;;;;;;;;;4917326;29;19927;-92
2022/11/25 13:39:51;;;;;;;;;;;;;;;;;;4917373;29;19927;-93
2022/11/25 13:42:20;;;;;;;;;;;;;;;;;;4917678;29;19923;-94
2022/11/25 13:44:46;;;;;;;;;;;;;;;;;;4917635;29;19923;-91
2022/11/25 13:47:12;;;;;;;;;;;;;;;;;;4882608;29;20022;-91
2022/11/25 13:49:38;;;;;;;;;;;;;;;;;;4898206;29;19927;-91
2022/11/25 13:52:04;;;;;;;;;;;;;;;;;;4898617;29;19927;-93
2022/11/25 13:54:29;;;;;;;;;;;;;;;;;;4882784;29;19978;-92
2022/11/25 13:56:55;;;;;;;;;;;;;;;;;;4882457;29;20307;-91
2022/11/25 13:59:21;;;;;;;;;;;;;;;;;;4882358;29;19928;-92
2022/11/25 14:01:47;;;;;;;;;;;;;;;;;;4887474;29;19926;-90
2022/11/25 14:04:13;;;;;;;;;;;;;;;;;;4916710;29;19927;-91
2022/11/25 14:06:39;;;;;;;;;;;;;;;;;;4916632;29;19923;-92
2022/11/25 14:09:05;;;;;;;;;;;;;;;;;;4915345;29;19978;-91
2022/11/25 14:11:31;;;;;;;;;;;;;;;;;;4915456;29;19927;-91
2022/11/25 14:13:57;;;;;;;;;;;;;;;;;;4900812;29;19978;-91
2022/11/25 14:16:23;;;;;;;;;;;;;;;;;;4900816;29;19974;-91
2022/11/25 14:18:50;;;;;;;;;;;;;;;;;;4916576;29;19938;-92
2022/11/25 14:21:16;;;;;;;;;;;;;;;;;;4900801;29;19930;-91
2022/11/25 14:23:42;;;;;;;;;;;;;;;;;;4916294;29;19926;-92
2022/11/25 14:26:08;;;;;;;;;;;;;;;;;;4916123;29;19970;-91
2022/11/25 14:28:42;;;;;;;;;;;;;;;;;;4916851;29;19998;-91
2022/11/25 14:31:08;;;;;;;;;;;;;;;;;;4916778;29;20022;-93
2022/11/25 14:33:34;;;;;;;;;;;;;;;;;;4917016;29;19927;-94
2022/11/25 14:36:00;;;;;;;;;;;;;;;;;;4916386;29;20351;-93
2022/11/25 14:38:28;;;;;;;;;;;;;;;;;;4916620;29;19923;-95
2022/11/25 14:40:54;;;;;;;;;;;;;;;;;;4917588;29;19970;-95
2022/11/25 14:43:20;;;;;;;;;;;;;;;;;;4916684;29;19985;-96
2022/11/25 14:45:46;;;;;;;;;;;;;;;;;;4900347;29;20375;-93
2022/11/25 14:48:12;;;;;;;;;;;;;;;;;;4898328;29;19971;-96
2022/11/25 14:50:38;;;;;;;;;;;;;;;;;;4901223;29;19994;-92
2022/11/25 14:53:07;;;;;;;;;;;;;;;;;;4916852;29;19963;-96
2022/11/25 14:55:33;;;;;;;;;;;;;;;;;;4916362;29;19985;-95
2022/11/25 14:58:02;;;;;;;;;;;;;;;;;;4916383;29;20014;-95
2022/11/25 15:00:31;;;;;;;;;;;;;;;;;;4916333;29;20339;-95
2022/11/25 15:02:57;;;;;;;;;;;;;;;;;;4916243;29;19924;-93
2022/11/25 15:05:25;;;;;;;;;;;;;;;;;;4900772;29;20394;-95
2022/11/25 15:07:53;;;;;;;;;;;;;;;;;;4900934;29;19927;-93
2022/11/25 15:10:19;;;;;;;;;;;;;;;;;;4916495;29;19930;-92
2022/11/25 15:12:45;;;;;;;;;;;;;;;;;;4917514;29;20387;-94
2022/11/25 15:15:21;;;;;;;;;;;;;;;;;;;;;
2022/11/25 15:17:48;;;;;;;;;;;;;;;;;;4916952;29;20431;-96
2022/11/25 15:20:20;;;;;;;;;;;;;;;;;;4915485;29;19927;-96
2022/11/25 15:22:46;;;;;;;;;;;;;;;;;;4900612;29;20015;-95
2022/11/25 15:25:15;;;;;;;;;;;;;;;;;;4917017;29;19923;-96
2022/11/25 15:27:41;;;;;;;;;;;;;;;;;;4917202;29;19929;-96
2022/11/25 15:30:09;;;;;;;;;;;;;;;;;;4915708;29;19959;-95
2022/11/25 15:32:38;;;;;;;;;;;;;;;;;;4916898;29;19927;-91
2022/11/25 15:38:11;;;;;;;;;;;;;;;;;;5116712;23;20220;-95
2022/11/25 15:40:38;;;;;;;;;;;;;;;;;;4915030;29;20035;-92
2022/11/25 15:43:04;;;;;;;;;;;;;;;;;;4899688;29;20022;-92
2022/11/25 15:45:32;;;;;;;;;;;;;;;;;;4915563;29;20018;-96
2022/11/25 15:47:58;;;;;;;;;;;;;;;;;;4916418;29;19927;-93
2022/11/25 15:50:24;;;;;;;;;;;;;;;;;;4915360;29;20331;-93
2022/11/25 15:52:50;;;;;;;;;;;;;;;;;;5037907;23;19990;-94
2022/11/25 15:55:16;;;;;;;;;;;;;;;;;;4916227;29;19923;-95
2022/11/25 15:57:44;;;;;;;;;;;;;;;;;;4917772;29;19982;-95
2022/11/25 16:03:14;;;;;;;;;;;;;;;;;;5196685;23;19970;-92
2022/11/25 16:05:40;;;;;;;;;;;;;;;;;;4916736;29;19923;-94
2022/11/25 16:08:06;;;;;;;;;;;;;;;;;;4916526;29;20344;-95
2022/11/25 16:10:34;;;;;;;;;;;;;;;;;;4917526;29;19927;-95
2022/11/25 16:13:00;;;;;;;;;;;;;;;;;;4915437;29;19930;-94
2022/11/25 16:15:32;;;;;;;;;;;;;;;;;;4918305;29;19927;-95
2022/11/25 16:23:48;;;;;;;;;;;;;;;;;;4851751;29;19934;-96
2022/11/25 16:26:35;;;;;;;;;;;;;;;;;;4850129;29;19924;-94
2022/11/25 16:29:09;;;;;;;;;;;;;;;;;;4925143;29;19923;-93
2022/11/25 16:31:57;;;;;;;;;;;;;;;;;;4923002;29;19983;-96
2022/11/25 16:39:34;;;;;;;;;;;;;;;;;;5645633;23;19927;-96
2022/11/25 16:42:06;;;;;;;;;;;;;;;;;;4921987;29;20263;-92
2022/11/25 16:47:39;;;;;;;;;;;;;;;;;;4858396;29;19958;-95
2022/11/25 16:52:39;;;;;;;;;;;;;;;;;;5657612;23;19962;-92
2022/11/25 16:58:23;;;;;;;;;;;;;;;;;;4923970;29;20330;-95
2022/11/25 17:00:49;;;;;;;;;;;;;;;;;;4919953;29;20030;-91
2022/11/25 17:03:15;;;;;;;;;;;;;;;;;;4902703;29;19930;-94
2022/11/25 17:05:41;;;;;;;;;;;;;;;;;;4918331;29;19923;-93
2022/11/25 17:08:07;;;;;;;;;;;;;;;;;;4918609;29;20032;-94
2022/11/25 17:34:09;;;;;;;;;;;;;;;;;;5294806;23;20010;-91
2022/11/25 17:36:35;;;;;;;;;;;;;;;;;;4918332;29;19962;-93
2022/11/25 17:39:01;;;;;;;;;;;;;;;;;;4917911;29;20318;-93
2022/11/25 17:41:28;;;;;;;;;;;;;;;;;;4917889;29;20367;-94
2022/11/25 17:43:57;;;;;;;;;;;;;;;;;;4902511;29;19927;-95